createdAt,value
2019-01-31T00:04:41.176Z,10
2019-01-31T00:09:46.704Z,9.4
2019-01-31T00:14:52.358Z,9.6
2019-01-31T00:19:58.006Z,9.9
2019-01-31T00:25:03.615Z,10
2019-01-31T00:30:09.964Z,9.4
2019-01-31T00:35:15.828Z,9.6
2019-01-31T00:40:21.061Z,9.6
2019-01-31T00:45:26.668Z,9.8
2019-01-31T00:50:32.753Z,9.9
2019-01-31T00:55:37.769Z,9.7
2019-01-31T01:00:42.800Z,10
2019-01-31T01:05:47.893Z,9.8
2019-01-31T01:10:53.561Z,10.1
2019-01-31T01:15:59.152Z,9.9
2019-01-31T01:21:04.632Z,10.3
2019-01-31T01:26:10.189Z,10.1
2019-01-31T01:31:14.678Z,10.1
2019-01-31T01:36:19.900Z,9.9
2019-01-31T01:41:25.449Z,10
2019-01-31T01:46:29.079Z,10.5
2019-01-31T01:51:34.225Z,10.2
2019-01-31T01:56:40.305Z,10.6
2019-01-31T02:01:45.849Z,10.2
2019-01-31T02:06:50.969Z,10.2
2019-01-31T02:11:56.709Z,10.3
2019-01-31T02:17:02.255Z,10.3
2019-01-31T02:22:07.492Z,10.4
2019-01-31T02:27:12.996Z,10.6
2019-01-31T02:32:18.354Z,10.1
2019-01-31T02:37:23.957Z,10.4
2019-01-31T02:42:29.086Z,10.2
2019-01-31T02:47:34.434Z,10
2019-01-31T02:52:38.891Z,9.9
2019-01-31T02:57:44.784Z,10.5
2019-01-31T03:02:49.952Z,10.1
2019-01-31T03:07:55.913Z,10
2019-01-31T03:13:01.560Z,10.2
2019-01-31T03:18:07.462Z,10.4
2019-01-31T03:23:11.800Z,10.1
2019-01-31T03:28:17.582Z,10.8
2019-01-31T03:33:24.230Z,10.4
2019-01-31T03:38:28.436Z,10.8
2019-01-31T03:43:34.123Z,10.7
2019-01-31T03:48:39.486Z,10.8
2019-01-31T03:53:44.747Z,10.4
2019-01-31T03:58:50.695Z,10.7
2019-01-31T04:03:55.960Z,11.2
2019-01-31T04:09:01.270Z,11
2019-01-31T04:14:06.418Z,10.9
2019-01-31T04:19:11.378Z,11
2019-01-31T04:24:16.911Z,10.8
2019-01-31T04:29:22.518Z,10.7
2019-01-31T04:34:28.560Z,11.2
2019-01-31T04:39:33.639Z,10.9
2019-01-31T04:44:39.496Z,11.1
2019-01-31T04:49:44.468Z,10.3
2019-01-31T04:54:50.634Z,10.1
2019-01-31T04:59:56.523Z,10.1
2019-01-31T05:05:02.063Z,10.4
2019-01-31T05:10:07.762Z,10.2
2019-01-31T05:15:13.971Z,10.5
2019-01-31T05:20:18.988Z,9.9
2019-01-31T05:25:24.335Z,9.8
2019-01-31T05:30:30.415Z,9.4
2019-01-31T05:35:36.615Z,10.2
2019-01-31T05:40:54.266Z,9.6
2019-01-31T05:45:50.702Z,9.5
2019-01-31T05:50:56.049Z,9.7
2019-01-31T05:56:01.725Z,9.7
2019-01-31T06:01:07.584Z,10.3
2019-01-31T06:06:13.241Z,32.2
2019-01-31T06:11:18.783Z,27.3
2019-01-31T06:16:24.409Z,18.4
2019-01-31T06:21:30.387Z,14.4
2019-01-31T06:26:36.465Z,11.5
2019-01-31T06:31:42.026Z,9.5
2019-01-31T06:36:48.366Z,9.1
2019-01-31T06:41:53.660Z,7.7
2019-01-31T06:46:59.196Z,8.1
2019-01-31T06:52:04.241Z,8.9
2019-01-31T06:57:10.064Z,8.7
2019-01-31T07:02:15.736Z,8.1
2019-01-31T07:07:22.020Z,7.1
2019-01-31T07:12:28.311Z,8.5
2019-01-31T07:17:34.580Z,7.2
2019-01-31T07:22:39.943Z,7.5
2019-01-31T07:27:45.720Z,7.5
2019-01-31T07:32:50.112Z,7.6
2019-01-31T07:37:56.157Z,8.1
2019-01-31T07:43:02.027Z,7.2
2019-01-31T07:48:07.891Z,6.5
2019-01-31T07:53:13.948Z,5.9
2019-01-31T07:58:21.464Z,5.3
2019-01-31T08:03:24.434Z,5.9
2019-01-31T08:08:30.003Z,5.6
2019-01-31T08:13:35.820Z,4.6
2019-01-31T08:18:41.381Z,4.8
2019-01-31T08:23:46.728Z,23.2
2019-01-31T08:28:52.419Z,11.3
2019-01-31T08:33:58.073Z,9.9
2019-01-31T08:39:03.748Z,8.8
2019-01-31T08:44:09.000Z,7.7
2019-01-31T08:49:14.201Z,6.5
2019-01-31T08:54:19.336Z,5.4
2019-01-31T08:59:24.501Z,5.1
2019-01-31T09:04:29.398Z,4.5
2019-01-31T09:09:35.253Z,4.1
2019-01-31T09:14:40.196Z,4.2
2019-01-31T09:19:45.414Z,4.2
2019-01-31T09:24:51.159Z,4.1
2019-01-31T09:30:01.488Z,4.2
2019-01-31T09:34:57.264Z,4.5
2019-01-31T09:40:02.372Z,4
2019-01-31T09:45:07.523Z,4.6
2019-01-31T09:50:12.221Z,4.4
2019-01-31T09:55:15.690Z,4.7
2019-01-31T10:00:28.398Z,4.4
2019-01-31T10:05:23.953Z,4.4
2019-01-31T10:10:29.200Z,4.2
2019-01-31T10:15:35.408Z,4
2019-01-31T10:20:40.246Z,3.9
2019-01-31T10:25:46.196Z,4.2
2019-01-31T10:30:51.575Z,4.2
2019-01-31T10:35:56.923Z,4.3
2019-01-31T10:41:02.388Z,4
2019-01-31T10:46:07.967Z,3.9
2019-01-31T10:51:14.230Z,3.7
2019-01-31T10:56:19.144Z,3.8
2019-01-31T11:01:25.106Z,3.8
2019-01-31T11:06:30.330Z,4.1
2019-01-31T11:11:36.413Z,3.8
2019-01-31T11:16:42.186Z,3.9
2019-01-31T11:21:47.942Z,3.7
2019-01-31T11:26:52.835Z,3.7
2019-01-31T11:32:01.142Z,4
2019-01-31T11:37:06.566Z,3.8
2019-01-31T11:42:11.830Z,3.8
2019-01-31T11:47:17.318Z,3.4
2019-01-31T11:52:22.944Z,3.7
2019-01-31T11:57:28.236Z,3.6
2019-01-31T12:02:33.910Z,3.9
2019-01-31T12:07:39.280Z,3.7
2019-01-31T12:12:44.849Z,3.9
2019-01-31T12:17:50.157Z,3.6
2019-01-31T12:22:54.232Z,3.6
2019-01-31T12:28:00.207Z,3.6
2019-01-31T12:33:06.995Z,3.2
2019-01-31T12:38:12.370Z,2.8
2019-01-31T12:43:18.352Z,3
2019-01-31T12:48:22.789Z,2.8
2019-01-31T12:53:28.161Z,2.9
2019-01-31T12:58:34.696Z,2.6
2019-01-31T13:03:39.167Z,2.8
2019-01-31T13:08:45.256Z,2.9
2019-01-31T13:13:51.118Z,2.6
2019-01-31T13:18:57.107Z,2.4
2019-01-31T13:24:04.674Z,2.8
2019-01-31T13:29:10.891Z,2.8
2019-01-31T13:34:16.661Z,2.6
2019-01-31T13:39:22.857Z,2.4
2019-01-31T13:44:28.677Z,2.4
2019-01-31T13:49:37.879Z,2.5
2019-01-31T13:54:43.554Z,2.7
2019-01-31T13:59:49.254Z,2.5
2019-01-31T14:04:55.700Z,2.5
2019-01-31T14:10:01.778Z,2.4
2019-01-31T14:15:07.757Z,2
2019-01-31T14:20:13.422Z,1.9
2019-01-31T14:25:19.166Z,1.8
2019-01-31T14:30:25.171Z,1.5
2019-01-31T14:35:31.364Z,1.6
2019-01-31T14:40:36.845Z,1.7
2019-01-31T14:45:42.526Z,1.5
2019-01-31T14:50:47.758Z,1.5
2019-01-31T14:55:56.391Z,1.6
2019-01-31T15:01:02.052Z,1.4
2019-01-31T15:06:09.374Z,1.3
2019-01-31T15:11:15.023Z,1.4
2019-01-31T15:16:21.312Z,1.5
2019-01-31T15:21:30.823Z,1.3
2019-01-31T15:26:31.131Z,1.6
2019-01-31T15:31:34.935Z,1.3
2019-01-31T15:36:36.097Z,2
2019-01-31T15:41:40.796Z,2
2019-01-31T15:46:46.729Z,1.5
2019-01-31T15:51:51.754Z,2.7
2019-01-31T15:56:56.908Z,2.3
2019-01-31T16:02:02.955Z,2.2
2019-01-31T16:07:05.991Z,2.9
2019-01-31T16:12:10.815Z,3.3
2019-01-31T16:17:11.068Z,3.5
2019-01-31T16:22:16.005Z,3.5
2019-01-31T16:27:21.326Z,3.2
2019-01-31T16:32:26.992Z,3.3
2019-01-31T16:37:31.519Z,3
2019-01-31T16:42:37.418Z,3.1
2019-01-31T16:47:43.427Z,2.9
2019-01-31T16:52:49.367Z,3
2019-01-31T16:57:55.034Z,2.9
2019-01-31T17:03:00.401Z,3
2019-01-31T17:08:06.811Z,3.4
2019-01-31T17:13:12.661Z,3.1
2019-01-31T17:18:16.790Z,2.9
2019-01-31T17:23:22.839Z,2.9
2019-01-31T17:28:28.442Z,3
2019-01-31T17:33:34.507Z,3.2
2019-01-31T17:38:40.610Z,3.8
2019-01-31T17:43:49.072Z,3.4
2019-01-31T17:48:54.787Z,3.6
2019-01-31T17:54:02.493Z,5.7
2019-01-31T17:59:06.747Z,8
2019-01-31T18:04:12.723Z,8
2019-01-31T18:09:18.807Z,8.1
2019-01-31T18:14:24.055Z,8.5
2019-01-31T18:19:30.382Z,7.5
2019-01-31T18:24:35.419Z,8.2
2019-01-31T18:29:41.282Z,7.3
2019-01-31T18:34:47.360Z,7.3
2019-01-31T18:39:53.567Z,7.4
2019-01-31T18:44:58.998Z,7.4
2019-01-31T18:50:04.924Z,7.1
2019-01-31T18:55:10.570Z,7.3
2019-01-31T19:00:14.683Z,21.9
2019-01-31T19:05:20.263Z,25.9
2019-01-31T19:10:25.827Z,24.1
2019-01-31T19:15:30.873Z,22.2
2019-01-31T19:20:36.118Z,20.3
2019-01-31T19:25:41.278Z,19.1
2019-01-31T19:30:46.346Z,17.7
2019-01-31T19:35:52.003Z,17.1
2019-01-31T19:40:57.670Z,16
2019-01-31T19:46:03.151Z,15.7
2019-01-31T19:51:11.469Z,15.6
2019-01-31T19:56:17.134Z,14.9
2019-01-31T20:01:23.539Z,14
2019-01-31T20:06:28.568Z,14.4
2019-01-31T20:11:34.158Z,13.8
2019-01-31T20:16:40.130Z,13.6
2019-01-31T20:21:45.626Z,13.2
2019-01-31T20:26:51.149Z,13.2
2019-01-31T20:31:55.601Z,12.8
2019-01-31T20:37:01.114Z,12.4
2019-01-31T20:42:06.226Z,12.8
2019-01-31T20:47:16.800Z,12.7
2019-01-31T20:52:22.561Z,12.3
2019-01-31T20:57:28.225Z,12.4
2019-01-31T21:02:33.885Z,12.5
2019-01-31T21:07:39.060Z,12.5
2019-01-31T21:12:43.090Z,11
2019-01-31T21:17:49.250Z,11.7
2019-01-31T21:22:54.382Z,11.1
2019-01-31T21:27:59.884Z,11.3
2019-01-31T21:33:05.764Z,11.7
2019-01-31T21:38:11.492Z,11.6
2019-01-31T21:43:17.906Z,10.2
2019-01-31T21:48:26.812Z,10.6
2019-01-31T21:53:36.297Z,10.3
2019-01-31T21:58:42.511Z,10.5
2019-01-31T22:03:47.992Z,10.2
2019-01-31T22:08:53.442Z,10.1
2019-01-31T22:13:59.085Z,9.9
2019-01-31T22:19:04.786Z,8.9
2019-01-31T22:24:10.007Z,8.1
2019-01-31T22:29:15.206Z,8
2019-01-31T22:34:20.848Z,7.7
2019-01-31T22:39:26.819Z,7.7
2019-01-31T22:44:32.741Z,7.4
2019-01-31T22:49:38.172Z,7.4
2019-01-31T22:54:44.383Z,6.6
2019-01-31T22:59:50.012Z,6.7
2019-01-31T23:04:55.116Z,6.4
2019-01-31T23:10:00.311Z,6
2019-01-31T23:15:05.591Z,5.9
2019-01-31T23:20:11.096Z,5.8
2019-01-31T23:25:16.616Z,5.8
2019-01-31T23:30:22.527Z,5.5
2019-01-31T23:35:28.063Z,5.4
2019-01-31T23:40:32.968Z,5.6
2019-01-31T23:45:38.375Z,5.2
2019-01-31T23:50:43.577Z,5.1
2019-01-31T23:55:49.456Z,5.1
